sensor_id;sensor_type;location;lat;lon;timestamp;P1;durP1;ratioP1;P2;durP2;ratioP2
30472;SDS011;17263;48.160;11.452;2023-06-04T00:00:18;8.20;;;5.37;;
30472;SDS011;17263;48.160;11.452;2023-06-04T00:02:44;6.13;;;5.10;;
30472;SDS011;17263;48.160;11.452;2023-06-04T00:05:10;9.17;;;5.13;;
30472;SDS011;17263;48.160;11.452;2023-06-04T00:07:36;8.33;;;4.70;;
30472;SDS011;17263;48.160;11.452;2023-06-04T00:10:03;6.23;;;4.90;;
30472;SDS011;17263;48.160;11.452;2023-06-04T00:12:30;6.03;;;4.90;;
30472;SDS011;17263;48.160;11.452;2023-06-04T00:14:56;7.53;;;5.23;;
30472;SDS011;17263;48.160;11.452;2023-06-04T00:17:22;6.07;;;4.80;;
30472;SDS011;17263;48.160;11.452;2023-06-04T00:19:48;7.30;;;4.73;;
30472;SDS011;17263;48.160;11.452;2023-06-04T00:22:14;5.97;;;4.50;;
30472;SDS011;17263;48.160;11.452;2023-06-04T00:24:40;7.93;;;5.23;;
30472;SDS011;17263;48.160;11.452;2023-06-04T00:27:07;5.17;;;4.67;;
30472;SDS011;17263;48.160;11.452;2023-06-04T00:29:33;7.17;;;4.60;;
30472;SDS011;17263;48.160;11.452;2023-06-04T00:32:00;6.03;;;4.80;;
30472;SDS011;17263;48.160;11.452;2023-06-04T00:34:26;7.43;;;4.70;;
30472;SDS011;17263;48.160;11.452;2023-06-04T00:36:52;7.87;;;4.77;;
30472;SDS011;17263;48.160;11.452;2023-06-04T00:39:18;5.13;;;4.63;;
30472;SDS011;17263;48.160;11.452;2023-06-04T00:41:44;8.20;;;4.57;;
30472;SDS011;17263;48.160;11.452;2023-06-04T00:44:10;6.37;;;4.77;;
30472;SDS011;17263;48.160;11.452;2023-06-04T00:46:37;5.20;;;4.70;;
30472;SDS011;17263;48.160;11.452;2023-06-04T00:49:04;6.00;;;4.27;;
30472;SDS011;17263;48.160;11.452;2023-06-04T00:51:31;6.07;;;4.87;;
30472;SDS011;17263;48.160;11.452;2023-06-04T00:53:58;7.67;;;4.30;;
30472;SDS011;17263;48.160;11.452;2023-06-04T00:56:24;7.93;;;5.27;;
30472;SDS011;17263;48.160;11.452;2023-06-04T00:58:50;5.10;;;4.57;;
30472;SDS011;17263;48.160;11.452;2023-06-04T01:01:48;6.47;;;4.97;;
30472;SDS011;17263;48.160;11.452;2023-06-04T01:07:14;5.07;;;4.13;;
30472;SDS011;17263;48.160;11.452;2023-06-04T01:09:41;5.70;;;4.73;;
30472;SDS011;17263;48.160;11.452;2023-06-04T01:12:07;7.27;;;4.53;;
30472;SDS011;17263;48.160;11.452;2023-06-04T01:14:34;6.17;;;4.73;;
30472;SDS011;17263;48.160;11.452;2023-06-04T01:17:07;6.47;;;4.57;;
30472;SDS011;17263;48.160;11.452;2023-06-04T01:22:29;5.20;;;4.70;;
30472;SDS011;17263;48.160;11.452;2023-06-04T01:25:05;5.87;;;4.67;;
30472;SDS011;17263;48.160;11.452;2023-06-04T01:27:51;4.87;;;3.90;;
30472;SDS011;17263;48.160;11.452;2023-06-04T01:30:25;6.20;;;4.40;;
30472;SDS011;17263;48.160;11.452;2023-06-04T01:32:59;7.77;;;4.60;;
30472;SDS011;17263;48.160;11.452;2023-06-04T01:35:26;8.97;;;4.73;;
30472;SDS011;17263;48.160;11.452;2023-06-04T01:37:53;7.77;;;4.67;;
30472;SDS011;17263;48.160;11.452;2023-06-04T01:40:20;7.90;;;4.40;;
30472;SDS011;17263;48.160;11.452;2023-06-04T01:42:46;5.53;;;4.13;;
30472;SDS011;17263;48.160;11.452;2023-06-04T01:45:12;5.93;;;4.50;;
30472;SDS011;17263;48.160;11.452;2023-06-04T01:47:38;5.87;;;4.20;;
30472;SDS011;17263;48.160;11.452;2023-06-04T01:50:05;4.73;;;4.30;;
30472;SDS011;17263;48.160;11.452;2023-06-04T01:52:38;5.83;;;4.40;;
30472;SDS011;17263;48.160;11.452;2023-06-04T01:55:06;6.37;;;4.10;;
30472;SDS011;17263;48.160;11.452;2023-06-04T01:57:37;4.83;;;4.27;;
30472;SDS011;17263;48.160;11.452;2023-06-04T02:00:04;4.80;;;4.17;;
30472;SDS011;17263;48.160;11.452;2023-06-04T02:02:35;5.47;;;4.33;;
30472;SDS011;17263;48.160;11.452;2023-06-04T02:05:03;4.80;;;3.70;;
30472;SDS011;17263;48.160;11.452;2023-06-04T02:07:29;8.03;;;4.33;;
30472;SDS011;17263;48.160;11.452;2023-06-04T02:09:56;6.90;;;3.90;;
30472;SDS011;17263;48.160;11.452;2023-06-04T02:12:22;5.63;;;3.90;;
30472;SDS011;17263;48.160;11.452;2023-06-04T02:14:48;6.50;;;3.90;;
30472;SDS011;17263;48.160;11.452;2023-06-04T02:17:15;8.00;;;3.80;;
30472;SDS011;17263;48.160;11.452;2023-06-04T02:19:42;7.33;;;4.23;;
30472;SDS011;17263;48.160;11.452;2023-06-04T02:22:11;4.10;;;3.70;;
30472;SDS011;17263;48.160;11.452;2023-06-04T02:24:37;4.93;;;3.73;;
30472;SDS011;17263;48.160;11.452;2023-06-04T02:27:05;4.70;;;3.83;;
30472;SDS011;17263;48.160;11.452;2023-06-04T02:29:31;6.33;;;4.30;;
30472;SDS011;17263;48.160;11.452;2023-06-04T02:31:57;5.50;;;4.20;;
30472;SDS011;17263;48.160;11.452;2023-06-04T02:34:23;6.60;;;4.30;;
30472;SDS011;17263;48.160;11.452;2023-06-04T02:36:50;5.70;;;4.43;;
30472;SDS011;17263;48.160;11.452;2023-06-04T02:39:17;7.47;;;4.60;;
30472;SDS011;17263;48.160;11.452;2023-06-04T02:41:44;5.23;;;4.13;;
30472;SDS011;17263;48.160;11.452;2023-06-04T02:44:11;4.70;;;4.13;;
30472;SDS011;17263;48.160;11.452;2023-06-04T02:46:37;7.80;;;4.80;;
30472;SDS011;17263;48.160;11.452;2023-06-04T02:49:03;5.97;;;4.53;;
30472;SDS011;17263;48.160;11.452;2023-06-04T02:51:30;6.30;;;4.27;;
30472;SDS011;17263;48.160;11.452;2023-06-04T02:53:56;7.77;;;4.80;;
30472;SDS011;17263;48.160;11.452;2023-06-04T02:56:22;5.90;;;4.73;;
30472;SDS011;17263;48.160;11.452;2023-06-04T02:58:51;7.63;;;4.97;;
30472;SDS011;17263;48.160;11.452;2023-06-04T03:01:19;8.63;;;4.67;;
30472;SDS011;17263;48.160;11.452;2023-06-04T03:03:49;5.53;;;4.80;;
30472;SDS011;17263;48.160;11.452;2023-06-04T03:06:15;7.27;;;4.63;;
30472;SDS011;17263;48.160;11.452;2023-06-04T03:08:42;7.27;;;5.03;;
30472;SDS011;17263;48.160;11.452;2023-06-04T03:11:08;7.17;;;4.60;;
30472;SDS011;17263;48.160;11.452;2023-06-04T03:13:35;5.27;;;4.70;;
30472;SDS011;17263;48.160;11.452;2023-06-04T03:16:01;8.33;;;5.17;;
30472;SDS011;17263;48.160;11.452;2023-06-04T03:18:28;5.97;;;5.10;;
30472;SDS011;17263;48.160;11.452;2023-06-04T03:20:54;5.53;;;4.93;;
30472;SDS011;17263;48.160;11.452;2023-06-04T03:23:20;7.63;;;4.80;;
30472;SDS011;17263;48.160;11.452;2023-06-04T03:25:47;9.03;;;5.23;;
30472;SDS011;17263;48.160;11.452;2023-06-04T03:28:13;6.33;;;5.37;;
30472;SDS011;17263;48.160;11.452;2023-06-04T03:30:40;5.53;;;4.83;;
30472;SDS011;17263;48.160;11.452;2023-06-04T03:33:07;5.27;;;4.77;;
30472;SDS011;17263;48.160;11.452;2023-06-04T03:35:33;6.90;;;5.27;;
30472;SDS011;17263;48.160;11.452;2023-06-04T03:37:59;10.07;;;5.20;;
30472;SDS011;17263;48.160;11.452;2023-06-04T03:40:25;6.13;;;5.37;;
30472;SDS011;17263;48.160;11.452;2023-06-04T03:42:51;6.50;;;5.33;;
30472;SDS011;17263;48.160;11.452;2023-06-04T03:45:17;6.57;;;5.27;;
30472;SDS011;17263;48.160;11.452;2023-06-04T03:47:43;6.00;;;5.37;;
30472;SDS011;17263;48.160;11.452;2023-06-04T03:50:09;6.10;;;5.10;;
30472;SDS011;17263;48.160;11.452;2023-06-04T03:52:36;7.37;;;5.67;;
30472;SDS011;17263;48.160;11.452;2023-06-04T03:55:02;10.13;;;5.80;;
30472;SDS011;17263;48.160;11.452;2023-06-04T03:57:29;8.63;;;5.37;;
30472;SDS011;17263;48.160;11.452;2023-06-04T03:59:55;7.70;;;5.70;;
30472;SDS011;17263;48.160;11.452;2023-06-04T04:02:21;5.53;;;4.83;;
30472;SDS011;17263;48.160;11.452;2023-06-04T04:04:47;6.30;;;5.50;;
30472;SDS011;17263;48.160;11.452;2023-06-04T04:07:13;6.90;;;5.50;;
30472;SDS011;17263;48.160;11.452;2023-06-04T04:09:40;6.60;;;5.57;;
30472;SDS011;17263;48.160;11.452;2023-06-04T04:12:06;6.43;;;5.10;;
30472;SDS011;17263;48.160;11.452;2023-06-04T04:14:32;7.67;;;4.97;;
30472;SDS011;17263;48.160;11.452;2023-06-04T04:16:58;7.07;;;5.33;;
30472;SDS011;17263;48.160;11.452;2023-06-04T04:19:25;6.77;;;5.10;;
30472;SDS011;17263;48.160;11.452;2023-06-04T04:21:51;5.77;;;4.87;;
30472;SDS011;17263;48.160;11.452;2023-06-04T04:24:27;6.67;;;4.97;;
30472;SDS011;17263;48.160;11.452;2023-06-04T04:26:53;5.93;;;5.23;;
30472;SDS011;17263;48.160;11.452;2023-06-04T04:29:20;5.10;;;4.43;;
30472;SDS011;17263;48.160;11.452;2023-06-04T04:31:50;7.57;;;5.17;;
30472;SDS011;17263;48.160;11.452;2023-06-04T04:34:17;6.53;;;5.20;;
30472;SDS011;17263;48.160;11.452;2023-06-04T04:36:46;5.80;;;5.20;;
30472;SDS011;17263;48.160;11.452;2023-06-04T04:39:26;9.43;;;5.33;;
30472;SDS011;17263;48.160;11.452;2023-06-04T04:41:53;6.13;;;4.73;;
30472;SDS011;17263;48.160;11.452;2023-06-04T04:44:20;5.27;;;4.60;;
30472;SDS011;17263;48.160;11.452;2023-06-04T04:46:49;5.30;;;4.80;;
30472;SDS011;17263;48.160;11.452;2023-06-04T04:49:15;5.30;;;4.70;;
30472;SDS011;17263;48.160;11.452;2023-06-04T04:51:41;6.17;;;5.07;;
30472;SDS011;17263;48.160;11.452;2023-06-04T04:54:07;5.30;;;4.60;;
30472;SDS011;17263;48.160;11.452;2023-06-04T04:56:33;5.60;;;4.57;;
30472;SDS011;17263;48.160;11.452;2023-06-04T04:59:00;5.10;;;4.67;;
30472;SDS011;17263;48.160;11.452;2023-06-04T05:01:27;5.33;;;4.80;;
30472;SDS011;17263;48.160;11.452;2023-06-04T05:03:53;5.13;;;4.50;;
30472;SDS011;17263;48.160;11.452;2023-06-04T05:06:19;5.60;;;4.77;;
30472;SDS011;17263;48.160;11.452;2023-06-04T05:08:46;7.00;;;4.63;;
30472;SDS011;17263;48.160;11.452;2023-06-04T05:11:13;5.67;;;4.33;;
30472;SDS011;17263;48.160;11.452;2023-06-04T05:13:39;5.47;;;4.33;;
30472;SDS011;17263;48.160;11.452;2023-06-04T05:16:07;11.87;;;4.67;;
30472;SDS011;17263;48.160;11.452;2023-06-04T05:18:33;8.70;;;4.57;;
30472;SDS011;17263;48.160;11.452;2023-06-04T05:21:00;5.63;;;4.03;;
30472;SDS011;17263;48.160;11.452;2023-06-04T05:23:28;4.53;;;4.07;;
30472;SDS011;17263;48.160;11.452;2023-06-04T05:25:55;6.77;;;4.00;;
30472;SDS011;17263;48.160;11.452;2023-06-04T05:28:21;5.50;;;4.43;;
30472;SDS011;17263;48.160;11.452;2023-06-04T05:30:51;6.47;;;4.17;;
30472;SDS011;17263;48.160;11.452;2023-06-04T05:33:17;7.07;;;3.80;;
30472;SDS011;17263;48.160;11.452;2023-06-04T05:35:45;4.23;;;3.80;;
30472;SDS011;17263;48.160;11.452;2023-06-04T05:38:12;5.00;;;3.92;;
30472;SDS011;17263;48.160;11.452;2023-06-04T05:40:42;4.17;;;3.77;;
30472;SDS011;17263;48.160;11.452;2023-06-04T05:43:09;4.93;;;3.75;;
30472;SDS011;17263;48.160;11.452;2023-06-04T05:45:35;6.25;;;3.50;;
30472;SDS011;17263;48.160;11.452;2023-06-04T05:48:01;4.70;;;3.53;;
30472;SDS011;17263;48.160;11.452;2023-06-04T05:50:27;4.00;;;3.60;;
30472;SDS011;17263;48.160;11.452;2023-06-04T05:52:53;4.10;;;3.40;;
30472;SDS011;17263;48.160;11.452;2023-06-04T05:55:19;4.90;;;3.35;;
30472;SDS011;17263;48.160;11.452;2023-06-04T05:57:46;4.30;;;3.63;;
30472;SDS011;17263;48.160;11.452;2023-06-04T06:00:12;4.88;;;3.75;;
30472;SDS011;17263;48.160;11.452;2023-06-04T06:02:39;4.38;;;3.22;;
30472;SDS011;17263;48.160;11.452;2023-06-04T06:05:05;3.42;;;3.13;;
30472;SDS011;17263;48.160;11.452;2023-06-04T06:07:34;4.03;;;3.25;;
30472;SDS011;17263;48.160;11.452;2023-06-04T06:10:01;4.20;;;3.10;;
30472;SDS011;17263;48.160;11.452;2023-06-04T06:12:28;5.03;;;3.95;;
30472;SDS011;17263;48.160;11.452;2023-06-04T06:14:54;4.47;;;3.15;;
30472;SDS011;17263;48.160;11.452;2023-06-04T06:17:20;4.07;;;3.20;;
30472;SDS011;17263;48.160;11.452;2023-06-04T06:19:46;3.50;;;3.03;;
30472;SDS011;17263;48.160;11.452;2023-06-04T06:22:12;5.78;;;3.42;;
30472;SDS011;17263;48.160;11.452;2023-06-04T06:24:39;5.40;;;3.42;;
30472;SDS011;17263;48.160;11.452;2023-06-04T06:27:05;5.93;;;3.60;;
30472;SDS011;17263;48.160;11.452;2023-06-04T06:29:31;3.72;;;3.40;;
30472;SDS011;17263;48.160;11.452;2023-06-04T06:31:57;5.45;;;2.97;;
30472;SDS011;17263;48.160;11.452;2023-06-04T06:34:23;4.53;;;3.15;;
30472;SDS011;17263;48.160;11.452;2023-06-04T06:36:49;3.58;;;2.78;;
30472;SDS011;17263;48.160;11.452;2023-06-04T06:39:15;4.80;;;3.20;;
30472;SDS011;17263;48.160;11.452;2023-06-04T06:41:41;4.75;;;3.20;;
30472;SDS011;17263;48.160;11.452;2023-06-04T06:44:08;3.55;;;3.00;;
30472;SDS011;17263;48.160;11.452;2023-06-04T06:46:34;5.35;;;3.28;;
30472;SDS011;17263;48.160;11.452;2023-06-04T06:49:00;4.38;;;3.30;;
30472;SDS011;17263;48.160;11.452;2023-06-04T06:51:26;4.18;;;3.33;;
30472;SDS011;17263;48.160;11.452;2023-06-04T06:53:52;4.38;;;3.05;;
30472;SDS011;17263;48.160;11.452;2023-06-04T06:56:18;4.05;;;3.03;;
30472;SDS011;17263;48.160;11.452;2023-06-04T06:58:44;5.13;;;3.10;;
30472;SDS011;17263;48.160;11.452;2023-06-04T07:01:11;5.60;;;3.47;;
30472;SDS011;17263;48.160;11.452;2023-06-04T07:03:37;6.90;;;3.20;;
30472;SDS011;17263;48.160;11.452;2023-06-04T07:06:05;5.75;;;3.55;;
30472;SDS011;17263;48.160;11.452;2023-06-04T07:08:32;5.68;;;3.63;;
30472;SDS011;17263;48.160;11.452;2023-06-04T07:10:58;6.25;;;3.35;;
30472;SDS011;17263;48.160;11.452;2023-06-04T07:13:26;4.32;;;3.50;;
30472;SDS011;17263;48.160;11.452;2023-06-04T07:15:53;3.88;;;3.15;;
30472;SDS011;17263;48.160;11.452;2023-06-04T07:18:19;6.43;;;3.63;;
30472;SDS011;17263;48.160;11.452;2023-06-04T07:20:45;6.47;;;3.47;;
30472;SDS011;17263;48.160;11.452;2023-06-04T07:23:12;4.32;;;3.67;;
30472;SDS011;17263;48.160;11.452;2023-06-04T07:25:38;4.68;;;3.50;;
30472;SDS011;17263;48.160;11.452;2023-06-04T07:28:04;3.95;;;3.53;;
30472;SDS011;17263;48.160;11.452;2023-06-04T07:30:30;4.25;;;3.80;;
30472;SDS011;17263;48.160;11.452;2023-06-04T07:32:59;4.10;;;3.13;;
30472;SDS011;17263;48.160;11.452;2023-06-04T07:35:25;4.63;;;3.80;;
30472;SDS011;17263;48.160;11.452;2023-06-04T07:37:51;4.00;;;3.60;;
30472;SDS011;17263;48.160;11.452;2023-06-04T07:40:17;4.95;;;3.40;;
30472;SDS011;17263;48.160;11.452;2023-06-04T07:42:44;5.63;;;3.78;;
30472;SDS011;17263;48.160;11.452;2023-06-04T07:45:11;5.88;;;3.65;;
30472;SDS011;17263;48.160;11.452;2023-06-04T07:47:37;5.47;;;3.72;;
30472;SDS011;17263;48.160;11.452;2023-06-04T07:50:04;4.20;;;3.80;;
30472;SDS011;17263;48.160;11.452;2023-06-04T07:52:31;4.50;;;3.55;;
30472;SDS011;17263;48.160;11.452;2023-06-04T07:54:57;5.30;;;3.67;;
30472;SDS011;17263;48.160;11.452;2023-06-04T07:57:24;4.22;;;3.70;;
30472;SDS011;17263;48.160;11.452;2023-06-04T07:59:50;3.63;;;3.33;;
30472;SDS011;17263;48.160;11.452;2023-06-04T08:02:17;7.03;;;3.30;;
30472;SDS011;17263;48.160;11.452;2023-06-04T08:04:44;4.85;;;3.22;;
30472;SDS011;17263;48.160;11.452;2023-06-04T08:07:11;3.38;;;3.00;;
30472;SDS011;17263;48.160;11.452;2023-06-04T08:09:38;5.07;;;2.97;;
30472;SDS011;17263;48.160;11.452;2023-06-04T08:12:04;5.35;;;2.97;;
30472;SDS011;17263;48.160;11.452;2023-06-04T08:14:30;5.75;;;3.10;;
30472;SDS011;17263;48.160;11.452;2023-06-04T08:16:57;3.00;;;2.70;;
30472;SDS011;17263;48.160;11.452;2023-06-04T08:19:23;5.35;;;3.30;;
30472;SDS011;17263;48.160;11.452;2023-06-04T08:21:50;4.80;;;3.20;;
30472;SDS011;17263;48.160;11.452;2023-06-04T08:24:16;4.88;;;3.22;;
30472;SDS011;17263;48.160;11.452;2023-06-04T08:26:42;3.83;;;2.75;;
30472;SDS011;17263;48.160;11.452;2023-06-04T08:29:08;5.95;;;3.00;;
30472;SDS011;17263;48.160;11.452;2023-06-04T08:31:34;3.90;;;3.10;;
30472;SDS011;17263;48.160;11.452;2023-06-04T08:34:00;4.93;;;3.35;;
30472;SDS011;17263;48.160;11.452;2023-06-04T08:36:27;4.82;;;2.95;;
30472;SDS011;17263;48.160;11.452;2023-06-04T08:38:53;4.30;;;3.05;;
30472;SDS011;17263;48.160;11.452;2023-06-04T08:44:07;3.67;;;2.88;;
30472;SDS011;17263;48.160;11.452;2023-06-04T08:46:37;4.38;;;3.08;;
30472;SDS011;17263;48.160;11.452;2023-06-04T08:49:07;4.65;;;2.90;;
30472;SDS011;17263;48.160;11.452;2023-06-04T08:51:35;3.42;;;3.13;;
30472;SDS011;17263;48.160;11.452;2023-06-04T08:54:06;6.25;;;3.30;;
30472;SDS011;17263;48.160;11.452;2023-06-04T08:56:35;3.78;;;3.13;;
30472;SDS011;17263;48.160;11.452;2023-06-04T08:59:03;5.15;;;2.60;;
30472;SDS011;17263;48.160;11.452;2023-06-04T09:01:32;5.20;;;2.97;;
30472;SDS011;17263;48.160;11.452;2023-06-04T09:04:01;6.65;;;2.97;;
30472;SDS011;17263;48.160;11.452;2023-06-04T09:06:29;4.65;;;3.20;;
30472;SDS011;17263;48.160;11.452;2023-06-04T09:08:59;5.15;;;3.15;;
30472;SDS011;17263;48.160;11.452;2023-06-04T09:11:33;3.55;;;2.92;;
30472;SDS011;17263;48.160;11.452;2023-06-04T09:14:07;4.03;;;3.35;;
30472;SDS011;17263;48.160;11.452;2023-06-04T09:16:46;4.15;;;3.00;;
30472;SDS011;17263;48.160;11.452;2023-06-04T09:19:14;5.40;;;2.85;;
30472;SDS011;17263;48.160;11.452;2023-06-04T09:21:53;3.83;;;2.90;;
30472;SDS011;17263;48.160;11.452;2023-06-04T09:24:24;5.65;;;2.92;;
30472;SDS011;17263;48.160;11.452;2023-06-04T09:26:51;4.53;;;3.20;;
30472;SDS011;17263;48.160;11.452;2023-06-04T09:29:17;3.55;;;2.92;;
30472;SDS011;17263;48.160;11.452;2023-06-04T09:31:44;4.15;;;2.95;;
30472;SDS011;17263;48.160;11.452;2023-06-04T09:34:12;5.90;;;3.03;;
30472;SDS011;17263;48.160;11.452;2023-06-04T09:36:39;3.53;;;3.22;;
30472;SDS011;17263;48.160;11.452;2023-06-04T09:39:14;6.50;;;3.20;;
30472;SDS011;17263;48.160;11.452;2023-06-04T09:41:43;4.53;;;2.80;;
30472;SDS011;17263;48.160;11.452;2023-06-04T09:44:10;4.30;;;2.90;;
30472;SDS011;17263;48.160;11.452;2023-06-04T09:46:37;3.97;;;2.83;;
30472;SDS011;17263;48.160;11.452;2023-06-04T09:49:04;10.65;;;3.30;;
30472;SDS011;17263;48.160;11.452;2023-06-04T09:51:31;3.20;;;2.72;;
30472;SDS011;17263;48.160;11.452;2023-06-04T09:53:58;5.13;;;3.05;;
30472;SDS011;17263;48.160;11.452;2023-06-04T09:56:26;8.45;;;3.45;;
30472;SDS011;17263;48.160;11.452;2023-06-04T09:58:59;3.85;;;2.88;;
30472;SDS011;17263;48.160;11.452;2023-06-04T10:01:29;5.47;;;2.75;;
30472;SDS011;17263;48.160;11.452;2023-06-04T10:03:55;9.70;;;3.67;;
30472;SDS011;17263;48.160;11.452;2023-06-04T10:06:23;7.13;;;3.47;;
30472;SDS011;17263;48.160;11.452;2023-06-04T10:08:52;7.18;;;2.80;;
30472;SDS011;17263;48.160;11.452;2023-06-04T10:11:25;3.40;;;3.10;;
30472;SDS011;17263;48.160;11.452;2023-06-04T10:16:25;3.10;;;2.78;;
30472;SDS011;17263;48.160;11.452;2023-06-04T10:18:52;3.72;;;2.90;;
30472;SDS011;17263;48.160;11.452;2023-06-04T10:21:20;4.38;;;2.70;;
30472;SDS011;17263;48.160;11.452;2023-06-04T10:23:47;3.92;;;2.78;;
30472;SDS011;17263;48.160;11.452;2023-06-04T10:26:14;4.32;;;3.20;;
30472;SDS011;17263;48.160;11.452;2023-06-04T10:28:41;7.50;;;3.35;;
30472;SDS011;17263;48.160;11.452;2023-06-04T10:31:09;6.43;;;3.13;;
30472;SDS011;17263;48.160;11.452;2023-06-04T10:33:35;5.18;;;3.30;;
30472;SDS011;17263;48.160;11.452;2023-06-04T10:36:15;4.68;;;3.28;;
30472;SDS011;17263;48.160;11.452;2023-06-04T10:38:47;5.63;;;3.40;;
30472;SDS011;17263;48.160;11.452;2023-06-04T10:41:15;3.95;;;3.22;;
30472;SDS011;17263;48.160;11.452;2023-06-04T10:43:45;3.90;;;3.50;;
30472;SDS011;17263;48.160;11.452;2023-06-04T10:46:18;3.83;;;3.50;;
30472;SDS011;17263;48.160;11.452;2023-06-04T10:48:48;4.00;;;3.50;;
30472;SDS011;17263;48.160;11.452;2023-06-04T10:51:15;3.72;;;3.28;;
30472;SDS011;17263;48.160;11.452;2023-06-04T10:53:53;11.65;;;3.90;;
30472;SDS011;17263;48.160;11.452;2023-06-04T10:56:29;6.35;;;3.80;;
30472;SDS011;17263;48.160;11.452;2023-06-04T10:59:15;5.35;;;3.70;;
30472;SDS011;17263;48.160;11.452;2023-06-04T11:01:43;4.30;;;3.80;;
30472;SDS011;17263;48.160;11.452;2023-06-04T11:04:22;4.05;;;3.55;;
30472;SDS011;17263;48.160;11.452;2023-06-04T11:06:59;5.88;;;3.85;;
30472;SDS011;17263;48.160;11.452;2023-06-04T11:09:30;4.18;;;3.33;;
30472;SDS011;17263;48.160;11.452;2023-06-04T11:11:57;5.28;;;3.60;;
30472;SDS011;17263;48.160;11.452;2023-06-04T11:14:24;4.53;;;3.22;;
30472;SDS011;17263;48.160;11.452;2023-06-04T11:16:50;6.55;;;3.60;;
30472;SDS011;17263;48.160;11.452;2023-06-04T11:19:16;4.40;;;3.30;;
30472;SDS011;17263;48.160;11.452;2023-06-04T11:21:43;5.35;;;3.60;;
30472;SDS011;17263;48.160;11.452;2023-06-04T11:24:11;3.80;;;3.20;;
30472;SDS011;17263;48.160;11.452;2023-06-04T11:26:38;5.20;;;3.30;;
30472;SDS011;17263;48.160;11.452;2023-06-04T11:29:06;4.03;;;3.10;;
30472;SDS011;17263;48.160;11.452;2023-06-04T11:34:10;3.95;;;3.25;;
30472;SDS011;17263;48.160;11.452;2023-06-04T11:36:39;3.88;;;3.47;;
30472;SDS011;17263;48.160;11.452;2023-06-04T11:39:05;4.00;;;3.13;;
30472;SDS011;17263;48.160;11.452;2023-06-04T11:41:34;4.07;;;3.38;;
30472;SDS011;17263;48.160;11.452;2023-06-04T11:44:02;4.97;;;3.75;;
30472;SDS011;17263;48.160;11.452;2023-06-04T11:46:33;3.28;;;2.92;;
30472;SDS011;17263;48.160;11.452;2023-06-04T11:49:00;4.05;;;3.33;;
30472;SDS011;17263;48.160;11.452;2023-06-04T11:51:27;4.25;;;3.28;;
30472;SDS011;17263;48.160;11.452;2023-06-04T11:53:54;3.88;;;3.47;;
30472;SDS011;17263;48.160;11.452;2023-06-04T11:56:21;5.13;;;3.58;;
30472;SDS011;17263;48.160;11.452;2023-06-04T11:58:49;4.32;;;3.28;;
30472;SDS011;17263;48.160;11.452;2023-06-04T12:01:16;3.53;;;3.23;;
30472;SDS011;17263;48.160;11.452;2023-06-04T12:03:42;6.32;;;3.47;;
30472;SDS011;17263;48.160;11.452;2023-06-04T12:06:09;6.00;;;3.53;;
30472;SDS011;17263;48.160;11.452;2023-06-04T12:08:49;9.57;;;3.90;;
30472;SDS011;17263;48.160;11.452;2023-06-04T12:11:24;6.13;;;3.22;;
30472;SDS011;17263;48.160;11.452;2023-06-04T12:13:57;4.27;;;3.20;;
30472;SDS011;17263;48.160;11.452;2023-06-04T12:16:24;4.18;;;3.42;;
30472;SDS011;17263;48.160;11.452;2023-06-04T12:18:51;4.32;;;3.55;;
30472;SDS011;17263;48.160;11.452;2023-06-04T12:21:21;6.55;;;3.50;;
30472;SDS011;17263;48.160;11.452;2023-06-04T12:23:53;4.97;;;3.35;;
30472;SDS011;17263;48.160;11.452;2023-06-04T12:26:23;4.68;;;3.33;;
30472;SDS011;17263;48.160;11.452;2023-06-04T12:29:00;4.60;;;3.58;;
30472;SDS011;17263;48.160;11.452;2023-06-04T12:31:27;3.95;;;3.35;;
30472;SDS011;17263;48.160;11.452;2023-06-04T12:33:58;5.65;;;3.58;;
30472;SDS011;17263;48.160;11.452;2023-06-04T12:36:25;5.00;;;3.67;;
30472;SDS011;17263;48.160;11.452;2023-06-04T12:38:51;3.90;;;3.47;;
30472;SDS011;17263;48.160;11.452;2023-06-04T12:41:17;5.00;;;3.38;;
30472;SDS011;17263;48.160;11.452;2023-06-04T12:43:43;4.78;;;3.03;;
30472;SDS011;17263;48.160;11.452;2023-06-04T12:46:10;6.50;;;3.60;;
30472;SDS011;17263;48.160;11.452;2023-06-04T12:48:36;4.90;;;3.77;;
30472;SDS011;17263;48.160;11.452;2023-06-04T12:51:02;4.07;;;3.50;;
30472;SDS011;17263;48.160;11.452;2023-06-04T12:53:28;4.85;;;3.38;;
30472;SDS011;17263;48.160;11.452;2023-06-04T12:55:54;4.30;;;3.78;;
30472;SDS011;17263;48.160;11.452;2023-06-04T12:58:20;4.63;;;3.65;;
30472;SDS011;17263;48.160;11.452;2023-06-04T13:00:46;4.18;;;3.50;;
30472;SDS011;17263;48.160;11.452;2023-06-04T13:03:12;4.18;;;3.60;;
30472;SDS011;17263;48.160;11.452;2023-06-04T13:05:38;6.32;;;3.60;;
30472;SDS011;17263;48.160;11.452;2023-06-04T13:08:04;7.65;;;3.78;;
30472;SDS011;17263;48.160;11.452;2023-06-04T13:10:30;4.28;;;3.78;;
30472;SDS011;17263;48.160;11.452;2023-06-04T13:12:56;3.75;;;3.17;;
30472;SDS011;17263;48.160;11.452;2023-06-04T13:15:22;5.13;;;3.60;;
30472;SDS011;17263;48.160;11.452;2023-06-04T13:17:48;5.72;;;4.72;;
30472;SDS011;17263;48.160;11.452;2023-06-04T13:20:14;8.13;;;3.70;;
30472;SDS011;17263;48.160;11.452;2023-06-04T13:22:40;6.75;;;3.85;;
30472;SDS011;17263;48.160;11.452;2023-06-04T13:25:09;5.22;;;3.75;;
30472;SDS011;17263;48.160;11.452;2023-06-04T13:27:35;7.32;;;6.63;;
30472;SDS011;17263;48.160;11.452;2023-06-04T13:30:01;6.80;;;6.10;;
30472;SDS011;17263;48.160;11.452;2023-06-04T13:32:27;9.05;;;7.65;;
30472;SDS011;17263;48.160;11.452;2023-06-04T13:34:53;6.28;;;5.20;;
30472;SDS011;17263;48.160;11.452;2023-06-04T13:37:19;5.25;;;3.88;;
30472;SDS011;17263;48.160;11.452;2023-06-04T13:39:45;6.50;;;3.70;;
30472;SDS011;17263;48.160;11.452;2023-06-04T13:42:11;5.43;;;3.40;;
30472;SDS011;17263;48.160;11.452;2023-06-04T13:44:37;5.43;;;3.83;;
30472;SDS011;17263;48.160;11.452;2023-06-04T13:47:03;3.78;;;3.35;;
30472;SDS011;17263;48.160;11.452;2023-06-04T13:49:32;5.22;;;3.55;;
30472;SDS011;17263;48.160;11.452;2023-06-04T13:51:58;5.15;;;4.05;;
30472;SDS011;17263;48.160;11.452;2023-06-04T13:54:24;7.80;;;5.00;;
30472;SDS011;17263;48.160;11.452;2023-06-04T13:56:50;7.00;;;3.75;;
30472;SDS011;17263;48.160;11.452;2023-06-04T13:59:16;5.95;;;3.50;;
30472;SDS011;17263;48.160;11.452;2023-06-04T14:01:42;5.43;;;3.63;;
30472;SDS011;17263;48.160;11.452;2023-06-04T14:04:08;8.15;;;4.10;;
30472;SDS011;17263;48.160;11.452;2023-06-04T14:06:36;5.85;;;3.50;;
30472;SDS011;17263;48.160;11.452;2023-06-04T14:09:06;4.97;;;3.47;;
30472;SDS011;17263;48.160;11.452;2023-06-04T14:11:32;4.30;;;3.85;;
30472;SDS011;17263;48.160;11.452;2023-06-04T14:13:58;6.85;;;3.92;;
30472;SDS011;17263;48.160;11.452;2023-06-04T14:16:24;3.55;;;3.25;;
30472;SDS011;17263;48.160;11.452;2023-06-04T14:18:50;8.02;;;3.30;;
30472;SDS011;17263;48.160;11.452;2023-06-04T14:21:16;4.57;;;3.33;;
30472;SDS011;17263;48.160;11.452;2023-06-04T14:23:43;4.63;;;3.88;;
30472;SDS011;17263;48.160;11.452;2023-06-04T14:26:09;4.60;;;3.95;;
30472;SDS011;17263;48.160;11.452;2023-06-04T14:28:36;6.13;;;3.90;;
30472;SDS011;17263;48.160;11.452;2023-06-04T14:31:02;4.53;;;3.92;;
30472;SDS011;17263;48.160;11.452;2023-06-04T14:33:28;6.40;;;3.80;;
30472;SDS011;17263;48.160;11.452;2023-06-04T14:35:54;4.72;;;3.83;;
30472;SDS011;17263;48.160;11.452;2023-06-04T14:38:21;5.10;;;3.30;;
30472;SDS011;17263;48.160;11.452;2023-06-04T14:40:47;3.80;;;3.40;;
30472;SDS011;17263;48.160;11.452;2023-06-04T14:43:13;3.92;;;3.53;;
30472;SDS011;17263;48.160;11.452;2023-06-04T14:45:39;5.57;;;3.55;;
30472;SDS011;17263;48.160;11.452;2023-06-04T14:48:06;6.40;;;3.95;;